Time;durP1;ratioP1;P1;durP2;ratioP2;P2;SDS_P1;SDS_P2;PMS_P1;PMS_P2;Temp;Humidity;BMP_temperature;BMP_pressure;BME280_temperature;BME280_humidity;BME280_pressure;Samples;Min_cycle;Max_cycle;Signal;HPM_P1;HPM_P2
2023/07/02 00:00:06;;;;;;;3.90;3.50;;;25.70;57.00;;;;;;5013972;28;20022;-75
2023/07/02 00:02:32;;;;;;;4.85;3.58;;;25.70;57.00;;;;;;5014084;28;20384;-74
2023/07/02 00:04:58;;;;;;;4.38;3.22;;;25.70;57.10;;;;;;5013722;28;20034;-74
2023/07/02 00:07:25;;;;;;;3.80;3.50;;;25.70;57.10;;;;;;5014261;28;20029;-74
2023/07/02 00:09:51;;;;;;;3.45;3.00;;;25.60;57.10;;;;;;5014297;28;20025;-73
2023/07/02 00:12:17;;;;;;;4.60;3.67;;;25.60;57.20;;;;;;5013747;28;20453;-75
2023/07/02 00:14:43;;;;;;;3.80;3.40;;;25.60;57.30;;;;;;5013908;28;20112;-75
2023/07/02 00:17:12;;;;;;;3.70;3.30;;;25.60;57.40;;;;;;5013780;28;20033;-74
2023/07/02 00:19:41;;;;;;;4.25;3.58;;;25.60;57.40;;;;;;5013517;28;20037;-74
2023/07/02 00:22:10;;;;;;;4.65;3.70;;;25.60;57.60;;;;;;5014354;28;20113;-75
2023/07/02 00:24:36;;;;;;;3.97;3.58;;;25.60;57.60;;;;;;5013931;28;20038;-75
2023/07/02 00:27:02;;;;;;;3.53;3.22;;;25.50;57.60;;;;;;5013816;28;20057;-75
2023/07/02 00:29:28;;;;;;;4.00;3.60;;;25.50;57.70;;;;;;5012457;28;20491;-75
2023/07/02 00:31:53;;;;;;;3.78;3.45;;;25.50;57.80;;;;;;5013390;28;20044;-74
2023/07/02 00:34:20;;;;;;;4.15;3.72;;;25.50;57.80;;;;;;5013703;28;20042;-75
2023/07/02 00:36:46;;;;;;;4.00;3.38;;;25.50;57.90;;;;;;5013744;28;20034;-74
2023/07/02 00:39:12;;;;;;;4.03;3.28;;;25.50;58.00;;;;;;5032830;28;20065;-75
2023/07/02 00:41:38;;;;;;;3.92;3.53;;;25.50;58.00;;;;;;5032740;28;20064;-75
2023/07/02 00:44:04;;;;;;;3.58;3.28;;;25.50;58.10;;;;;;5016176;28;20038;-74
2023/07/02 00:46:31;;;;;;;3.72;3.42;;;25.40;58.10;;;;;;5016057;28;20080;-75
2023/07/02 00:48:56;;;;;;;4.03;3.50;;;25.40;58.20;;;;;;5017283;28;20104;-75
2023/07/02 00:51:24;;;;;;;3.55;3.20;;;25.40;58.20;;;;;;5017611;28;20061;-75
2023/07/02 00:53:51;;;;;;;3.90;3.30;;;25.40;58.20;;;;;;5017542;28;20105;-75
2023/07/02 00:56:17;;;;;;;3.95;3.55;;;25.40;58.30;;;;;;5017299;28;20108;-74
2023/07/02 00:58:48;;;;;;;4.03;3.63;;;25.40;59.00;;;;;;5017426;28;20557;-74
2023/07/02 01:01:21;;;;;;;3.50;3.20;;;25.40;58.40;;;;;;5017253;28;20041;-74
2023/07/02 01:04:03;;;;;;;3.77;3.40;;;25.40;58.50;;;;;;5017564;28;20032;-73
2023/07/02 01:06:34;;;;;;;5.45;3.40;;;25.40;58.70;;;;;;5017284;28;20025;-74
2023/07/02 01:09:02;;;;;;;3.72;3.40;;;25.40;58.50;;;;;;5017299;28;20026;-75
2023/07/02 01:11:36;;;;;;;3.70;3.40;;;25.40;58.50;;;;;;5016945;28;20037;-73
2023/07/02 01:14:11;;;;;;;4.07;3.53;;;25.40;58.50;;;;;;5017681;28;20460;-74
2023/07/02 01:16:38;;;;;;;3.83;3.40;;;25.40;58.60;;;;;;5016102;28;20122;-74
2023/07/02 01:19:10;;;;;;;3.97;3.40;;;25.30;58.50;;;;;;5017110;28;20128;-74
2023/07/02 01:21:36;;;;;;;3.65;3.35;;;25.30;58.60;;;;;;5017006;28;20033;-74
2023/07/02 01:24:03;;;;;;;3.95;3.30;;;25.30;58.60;;;;;;5016562;28;20361;-74
2023/07/02 01:26:37;;;;;;;3.88;3.53;;;25.30;58.70;;;;;;5016694;28;20420;-74
2023/07/02 01:29:18;;;;;;;3.90;3.50;;;25.30;58.70;;;;;;5016902;28;20026;-74
2023/07/02 01:31:44;;;;;;;3.90;3.53;;;25.30;58.80;;;;;;5015359;28;20457;-74
2023/07/02 01:34:10;;;;;;;3.88;3.50;;;25.30;58.70;;;;;;5016723;28;20057;-74
2023/07/02 01:36:37;;;;;;;4.35;3.67;;;25.30;58.80;;;;;;5016405;28;20025;-73
2023/07/02 01:39:03;;;;;;;3.92;3.42;;;25.20;58.80;;;;;;5016632;28;20029;-74
2023/07/02 01:41:29;;;;;;;3.97;3.55;;;25.20;58.80;;;;;;5016904;28;20029;-73
2023/07/02 01:43:55;;;;;;;3.97;3.58;;;25.20;58.90;;;;;;5016658;28;20117;-74
2023/07/02 01:46:21;;;;;;;4.18;3.58;;;25.20;58.90;;;;;;5016738;28;20559;-74
2023/07/02 01:48:46;;;;;;;3.95;3.55;;;25.20;58.90;;;;;;5016385;28;20030;-75
2023/07/02 01:51:13;;;;;;;5.20;3.80;;;25.20;59.00;;;;;;5016054;28;20358;-75
2023/07/02 01:53:39;;;;;;;4.28;3.70;;;25.10;59.00;;;;;;5016516;28;20022;-75
2023/07/02 01:56:05;;;;;;;4.07;3.67;;;25.10;59.00;;;;;;5016461;28;20037;-74
2023/07/02 01:58:30;;;;;;;4.22;3.83;;;25.10;59.00;;;;;;5016786;28;20033;-74
2023/07/02 02:00:56;;;;;;;3.90;3.50;;;25.10;59.00;;;;;;5016226;28;20029;-75
2023/07/02 02:03:22;;;;;;;5.00;3.92;;;25.10;59.10;;;;;;5016036;28;20518;-74
2023/07/02 02:05:48;;;;;;;4.25;3.63;;;25.10;59.10;;;;;;5015998;28;20377;-74
2023/07/02 02:08:13;;;;;;;3.90;3.53;;;25.10;59.10;;;;;;5016011;28;20108;-73
2023/07/02 02:10:39;;;;;;;3.88;3.53;;;25.10;59.10;;;;;;5016054;28;20022;-75
2023/07/02 02:13:05;;;;;;;4.43;3.60;;;25.20;59.20;;;;;;5015825;28;20053;-74
2023/07/02 02:15:30;;;;;;;3.97;3.58;;;25.10;59.10;;;;;;5016089;28;20022;-74
2023/07/02 02:17:56;;;;;;;4.00;3.60;;;25.10;59.10;;;;;;5015822;28;20026;-75
2023/07/02 02:20:22;;;;;;;3.70;3.30;;;25.10;59.20;;;;;;5015410;28;20448;-74
2023/07/02 02:22:47;;;;;;;3.60;3.28;;;25.20;59.30;;;;;;5015780;28;20026;-74
2023/07/02 02:25:13;;;;;;;4.10;3.70;;;25.10;59.20;;;;;;5015516;28;20030;-74
2023/07/02 02:27:39;;;;;;;5.20;3.72;;;25.10;59.20;;;;;;5015879;28;20026;-74
2023/07/02 02:30:06;;;;;;;4.10;3.70;;;25.10;59.20;;;;;;5015429;28;20026;-75
2023/07/02 02:32:32;;;;;;;3.47;3.17;;;25.10;59.20;;;;;;5015203;28;20034;-74
2023/07/02 02:34:58;;;;;;;3.95;3.58;;;25.10;59.20;;;;;;5015445;28;20468;-75
2023/07/02 02:37:23;;;;;;;4.07;3.65;;;25.10;59.20;;;;;;5015370;28;20112;-74
2023/07/02 02:39:49;;;;;;;3.85;3.45;;;25.20;59.30;;;;;;5014305;28;20490;-74
2023/07/02 02:42:15;;;;;;;4.03;3.55;;;25.20;59.30;;;;;;5015244;28;20030;-74
2023/07/02 02:44:41;;;;;;;4.18;3.72;;;25.20;59.30;;;;;;5014806;28;20095;-74
2023/07/02 02:47:06;;;;;;;4.60;3.67;;;25.20;59.30;;;;;;5015161;28;20053;-74
2023/07/02 02:49:32;;;;;;;3.97;3.42;;;25.20;59.30;;;;;;5014889;28;20032;-73
2023/07/02 02:51:57;;;;;;;4.00;3.47;;;25.20;59.30;;;;;;5014997;28;20068;-73
2023/07/02 02:54:23;;;;;;;3.75;3.45;;;25.20;59.30;;;;;;5014938;28;20388;-73
2023/07/02 02:56:49;;;;;;;4.05;3.65;;;25.20;59.30;;;;;;5014850;28;20033;-73
2023/07/02 02:59:14;;;;;;;3.83;3.42;;;25.20;59.30;;;;;;5015296;28;20057;-73
2023/07/02 03:01:40;;;;;;;3.92;3.53;;;25.30;59.40;;;;;;5014659;28;20109;-73
2023/07/02 03:04:08;;;;;;;3.72;3.38;;;25.30;59.40;;;;;;5015164;28;20030;-73
2023/07/02 03:06:34;;;;;;;3.92;3.63;;;25.30;59.40;;;;;;5014943;28;20060;-74
2023/07/02 03:08:59;;;;;;;6.07;3.80;;;25.30;59.40;;;;;;5014672;28;20472;-74
2023/07/02 03:11:25;;;;;;;4.30;3.53;;;25.30;59.50;;;;;;5014912;28;20041;-74
2023/07/02 03:13:51;;;;;;;4.10;3.70;;;25.30;59.50;;;;;;5014640;28;20424;-74
2023/07/02 03:16:16;;;;;;;3.88;3.45;;;25.30;59.50;;;;;;5014552;28;20029;-74
2023/07/02 03:18:42;;;;;;;4.60;3.80;;;25.30;59.60;;;;;;5014337;28;20104;-74
2023/07/02 03:21:09;;;;;;;6.10;3.40;;;25.40;59.70;;;;;;5014733;28;20065;-74
2023/07/02 03:23:35;;;;;;;4.15;3.58;;;25.40;59.70;;;;;;5014807;28;20029;-75
2023/07/02 03:26:01;;;;;;;4.00;3.60;;;25.40;59.70;;;;;;5014442;28;20025;-74
2023/07/02 03:28:26;;;;;;;4.22;3.75;;;25.40;59.70;;;;;;5014422;28;20448;-74
2023/07/02 03:30:52;;;;;;;4.35;3.90;;;25.40;59.80;;;;;;5014217;28;20456;-74
2023/07/02 03:33:17;;;;;;;4.25;3.80;;;25.50;59.80;;;;;;5012860;28;20038;-74
2023/07/02 03:35:43;;;;;;;4.40;3.42;;;25.50;59.80;;;;;;5014312;28;20025;-75
2023/07/02 03:38:09;;;;;;;3.70;3.40;;;25.50;59.90;;;;;;5014623;28;20033;-75
2023/07/02 03:40:34;;;;;;;3.90;3.53;;;25.50;59.90;;;;;;5012876;28;20021;-75
2023/07/02 03:43:00;;;;;;;4.13;3.72;;;25.50;59.90;;;;;;5014538;28;20034;-75
2023/07/02 03:45:25;;;;;;;4.65;3.50;;;25.50;59.90;;;;;;5013918;28;20058;-75
2023/07/02 03:47:52;;;;;;;3.90;3.50;;;25.60;60.00;;;;;;5014088;28;20406;-74
2023/07/02 03:50:17;;;;;;;3.70;3.30;;;25.60;60.00;;;;;;5014103;28;20121;-75
2023/07/02 03:52:43;;;;;;;5.32;3.85;;;25.60;60.00;;;;;;5014586;28;20113;-74
2023/07/02 03:55:09;;;;;;;4.28;3.72;;;25.60;60.00;;;;;;5014323;28;20037;-74
2023/07/02 03:57:34;;;;;;;4.30;3.60;;;25.60;60.00;;;;;;5012794;28;20160;-74
2023/07/02 04:00:00;;;;;;;4.03;3.63;;;25.70;60.10;;;;;;5014154;28;20440;-74
2023/07/02 04:02:26;;;;;;;4.05;3.42;;;25.70;60.00;;;;;;5013636;28;20484;-74
2023/07/02 04:04:51;;;;;;;4.10;3.60;;;25.70;60.00;;;;;;5013687;28;20034;-75
2023/07/02 04:07:17;;;;;;;4.65;3.63;;;25.80;60.10;;;;;;5013680;28;20057;-75
2023/07/02 04:09:42;;;;;;;4.80;3.85;;;25.80;60.00;;;;;;5012641;28;20385;-74
2023/07/02 04:12:08;;;;;;;4.15;3.75;;;25.80;60.00;;;;;;5012828;28;20032;-74
2023/07/02 04:14:34;;;;;;;3.80;3.50;;;25.80;59.90;;;;;;5012999;28;20032;-74
2023/07/02 04:17:03;;;;;;;3.70;3.40;;;25.80;59.90;;;;;;5013702;28;20041;-74
2023/07/02 04:19:28;;;;;;;4.00;3.60;;;25.80;59.90;;;;;;5014045;28;20080;-74
2023/07/02 04:21:54;;;;;;;3.97;3.58;;;25.90;59.90;;;;;;5012355;28;20432;-74
2023/07/02 04:24:20;;;;;;;3.53;3.20;;;25.90;59.90;;;;;;5012365;28;20029;-74
2023/07/02 04:26:45;;;;;;;4.13;3.40;;;25.90;59.80;;;;;;5013639;28;20197;-74
2023/07/02 04:29:11;;;;;;;4.13;3.72;;;25.90;59.80;;;;;;5013648;28;20022;-74
2023/07/02 04:31:37;;;;;;;3.60;3.30;;;26.00;59.80;;;;;;5011988;28;20030;-74
2023/07/02 04:34:03;;;;;;;4.20;3.80;;;26.00;59.80;;;;;;5013593;28;20088;-73
2023/07/02 04:36:29;;;;;;;4.00;3.60;;;26.00;59.70;;;;;;5013772;28;20105;-74
2023/07/02 04:38:54;;;;;;;3.80;3.45;;;26.00;59.70;;;;;;5012358;28;20112;-74
2023/07/02 04:41:20;;;;;;;4.18;3.50;;;26.00;59.60;;;;;;5013565;28;20112;-74
2023/07/02 04:43:45;;;;;;;3.47;3.15;;;26.00;59.60;;;;;;5013336;28;20040;-74
2023/07/02 04:46:12;;;;;;;4.35;3.42;;;26.10;59.60;;;;;;5011937;28;20404;-75
2023/07/02 04:48:38;;;;;;;3.50;3.20;;;26.00;59.40;;;;;;5013309;28;20524;-75
2023/07/02 04:51:04;;;;;;;3.65;3.17;;;26.10;59.40;;;;;;5013210;28;20032;-74
2023/07/02 04:53:29;;;;;;;4.35;3.42;;;26.10;59.30;;;;;;5011791;28;20033;-75
2023/07/02 04:55:57;;;;;;;3.65;3.33;;;26.10;59.30;;;;;;5012167;28;20060;-74
2023/07/02 04:58:23;;;;;;;3.40;3.10;;;26.10;59.20;;;;;;5013377;28;20084;-74
2023/07/02 05:00:48;;;;;;;4.97;3.25;;;26.20;59.20;;;;;;5013302;28;20101;-74
2023/07/02 05:03:14;;;;;;;3.88;3.53;;;26.20;59.10;;;;;;5013818;28;20119;-75
2023/07/02 05:05:40;;;;;;;3.20;2.90;;;26.20;59.10;;;;;;5012285;28;20022;-74
2023/07/02 05:08:05;;;;;;;3.67;3.30;;;26.20;59.00;;;;;;5013227;28;20022;-74
2023/07/02 05:10:32;;;;;;;3.28;2.97;;;26.20;58.90;;;;;;5013434;28;20357;-74
2023/07/02 05:12:57;;;;;;;3.60;3.30;;;26.20;58.80;;;;;;5012963;28;20057;-74
2023/07/02 05:15:24;;;;;;;3.40;3.10;;;26.20;58.80;;;;;;5013105;28;20088;-74
2023/07/02 05:17:50;;;;;;;3.38;2.97;;;26.20;58.80;;;;;;5013182;28;20026;-73
2023/07/02 05:20:15;;;;;;;3.42;3.13;;;26.30;58.80;;;;;;5013472;28;20116;-74
2023/07/02 05:22:41;;;;;;;3.25;2.95;;;26.30;58.80;;;;;;5013279;28;20491;-75
2023/07/02 05:25:07;;;;;;;4.38;3.40;;;26.30;58.70;;;;;;5016361;28;20022;-74
2023/07/02 05:27:33;;;;;;;3.40;3.10;;;26.30;58.60;;;;;;5016589;28;20053;-74
2023/07/02 05:29:58;;;;;;;3.25;2.90;;;26.30;58.50;;;;;;5016495;28;20072;-75
2023/07/02 05:32:24;;;;;;;3.60;3.30;;;26.30;58.50;;;;;;5016540;28;20448;-75
2023/07/02 05:34:49;;;;;;;3.10;2.80;;;26.40;58.50;;;;;;5016481;28;20033;-74
2023/07/02 05:37:15;;;;;;;3.45;3.15;;;26.40;58.50;;;;;;5016669;28;20034;-75
2023/07/02 05:39:41;;;;;;;3.55;3.20;;;26.40;58.50;;;;;;5016339;28;20056;-75
2023/07/02 05:42:07;;;;;;;3.42;3.13;;;26.40;58.40;;;;;;5016419;28;20034;-75
2023/07/02 05:44:32;;;;;;;3.28;2.97;;;26.40;58.40;;;;;;5016030;28;20481;-75
2023/07/02 05:46:58;;;;;;;3.40;3.10;;;26.40;58.30;;;;;;5016477;28;20026;-75
2023/07/02 05:49:23;;;;;;;3.78;3.38;;;26.40;58.30;;;;;;5016551;28;20068;-74
2023/07/02 05:51:49;;;;;;;3.33;3.03;;;26.50;58.40;;;;;;5016410;28;20061;-75
2023/07/02 05:54:15;;;;;;;3.40;3.10;;;26.50;58.30;;;;;;5016190;28;20057;-74
2023/07/02 05:56:40;;;;;;;3.20;2.90;;;26.50;58.30;;;;;;5016172;28;20398;-74
2023/07/02 05:59:06;;;;;;;3.67;3.10;;;26.60;58.30;;;;;;5016173;28;20532;-75
2023/07/02 06:01:31;;;;;;;3.83;3.25;;;26.60;58.30;;;;;;5016450;28;20061;-74
2023/07/02 06:03:57;;;;;;;3.30;3.00;;;26.50;58.20;;;;;;5016222;28;20108;-73
2023/07/02 06:06:24;;;;;;;3.17;2.88;;;26.60;58.20;;;;;;5015871;28;20034;-74
2023/07/02 06:08:50;;;;;;;3.30;3.00;;;26.60;58.20;;;;;;5015936;28;20029;-74
2023/07/02 06:11:16;;;;;;;3.50;3.20;;;26.70;58.20;;;;;;5015739;28;20112;-74
2023/07/02 06:13:41;;;;;;;3.40;3.10;;;26.60;58.10;;;;;;5016118;28;20113;-74
2023/07/02 06:16:07;;;;;;;3.53;3.13;;;26.70;58.10;;;;;;5015912;28;20113;-75
2023/07/02 06:18:33;;;;;;;3.10;2.80;;;26.70;58.10;;;;;;5014509;28;20444;-74
2023/07/02 06:20:58;;;;;;;3.38;3.08;;;26.70;58.00;;;;;;5015558;28;20030;-74
2023/07/02 06:23:24;;;;;;;3.45;3.05;;;26.70;58.00;;;;;;5015643;28;20029;-74
2023/07/02 06:25:52;;;;;;;3.30;3.00;;;26.70;58.00;;;;;;5015589;28;20356;-75
2023/07/02 06:28:18;;;;;;;3.55;3.22;;;26.80;58.00;;;;;;5015898;28;20026;-75
2023/07/02 06:30:44;;;;;;;3.50;3.20;;;26.70;57.90;;;;;;5015411;28;20029;-75
2023/07/02 06:33:10;;;;;;;3.30;3.00;;;26.80;57.90;;;;;;5015399;28;20029;-74
2023/07/02 06:35:36;;;;;;;3.30;3.00;;;26.80;57.90;;;;;;5014834;28;20488;-74
2023/07/02 06:38:01;;;;;;;3.22;2.92;;;26.80;57.80;;;;;;5015300;28;20408;-75
2023/07/02 06:40:27;;;;;;;3.50;3.20;;;26.80;57.80;;;;;;5015208;28;20021;-75
2023/07/02 06:42:52;;;;;;;3.50;3.20;;;26.80;57.70;;;;;;5015272;28;20033;-75
2023/07/02 06:45:18;;;;;;;3.58;3.28;;;26.90;57.80;;;;;;5030514;28;20054;-75
2023/07/02 06:47:44;;;;;;;3.42;3.10;;;26.90;57.70;;;;;;5015393;28;20103;-74
2023/07/02 06:50:09;;;;;;;3.35;3.00;;;26.90;57.70;;;;;;5015455;28;20129;-75
2023/07/02 06:52:36;;;;;;;3.40;3.10;;;26.90;57.70;;;;;;5015195;28;20030;-75
2023/07/02 06:55:03;;;;;;;3.72;3.40;;;26.90;57.60;;;;;;5014975;28;20030;-74
2023/07/02 06:57:29;;;;;;;5.13;3.75;;;26.90;57.70;;;;;;5014790;28;20076;-74
2023/07/02 06:59:59;;;;;;;4.03;3.58;;;27.00;57.70;;;;;;5015325;28;20465;-74
2023/07/02 07:02:24;;;;;;;3.55;3.25;;;27.00;57.60;;;;;;5014006;28;20029;-74
2023/07/02 07:04:50;;;;;;;4.50;3.75;;;27.00;57.60;;;;;;5014048;28;20028;-75
2023/07/02 07:07:16;;;;;;;6.05;4.07;;;27.00;57.60;;;;;;5014652;28;20088;-74
2023/07/02 07:09:41;;;;;;;5.05;4.00;;;27.00;57.60;;;;;;5014909;28;20032;-75
2023/07/02 07:12:07;;;;;;;5.35;4.00;;;27.00;57.50;;;;;;5014639;28;20076;-75
2023/07/02 07:14:33;;;;;;;6.75;4.65;;;27.10;57.60;;;;;;5014903;28;20456;-75
2023/07/02 07:16:58;;;;;;;7.18;5.20;;;27.10;57.60;;;;;;5014739;28;20026;-75
2023/07/02 07:19:24;;;;;;;8.18;5.15;;;27.10;57.50;;;;;;5014573;28;20065;-75
2023/07/02 07:21:50;;;;;;;9.32;6.13;;;27.10;57.50;;;;;;5014528;28;20037;-75
2023/07/02 07:24:15;;;;;;;9.13;5.90;;;27.20;57.60;;;;;;5014456;28;20120;-74
2023/07/02 07:26:41;;;;;;;9.20;5.68;;;27.20;57.60;;;;;;5013157;28;20025;-75
2023/07/02 07:29:06;;;;;;;10.73;6.38;;;27.20;57.50;;;;;;5014476;28;20105;-75
2023/07/02 07:31:32;;;;;;;8.80;5.72;;;27.20;57.60;;;;;;5014693;28;20517;-75
2023/07/02 07:33:58;;;;;;;8.50;5.25;;;27.20;57.50;;;;;;5014358;28;20051;-75
2023/07/02 07:36:23;;;;;;;10.77;6.32;;;27.30;57.50;;;;;;5014561;28;20037;-74
2023/07/02 07:38:49;;;;;;;7.88;5.13;;;27.30;57.50;;;;;;5012928;28;20090;-74
2023/07/02 07:41:14;;;;;;;10.27;6.03;;;27.30;57.50;;;;;;5013896;28;20030;-75
2023/07/02 07:43:40;;;;;;;7.28;5.07;;;27.30;57.50;;;;;;5013049;28;20030;-74
2023/07/02 07:46:06;;;;;;;15.45;9.32;;;27.30;57.40;;;;;;5014354;28;20065;-74
2023/07/02 07:48:31;;;;;;;10.98;7.18;;;27.30;57.40;;;;;;5014496;28;20021;-75
2023/07/02 07:50:57;;;;;;;15.90;9.55;;;27.40;57.40;;;;;;5014273;28;20030;-75
2023/07/02 07:53:22;;;;;;;16.27;10.38;;;27.40;57.30;;;;;;5014471;28;20037;-75
2023/07/02 07:55:48;;;;;;;14.52;10.52;;;27.40;57.20;;;;;;5013802;28;20026;-75
2023/07/02 07:58:14;;;;;;;15.32;8.57;;;27.50;57.20;;;;;;5012891;28;20088;-75
2023/07/02 08:00:39;;;;;;;10.98;7.78;;;27.50;57.20;;;;;;5013955;28;20017;-75
2023/07/02 08:03:06;;;;;;;11.95;7.32;;;27.50;57.10;;;;;;5014236;28;20022;-75
2023/07/02 08:05:31;;;;;;;9.00;5.97;;;27.50;57.00;;;;;;5014144;28;20362;-75
2023/07/02 08:07:58;;;;;;;9.70;5.88;;;27.60;57.00;;;;;;5013849;28;20030;-75
2023/07/02 08:10:25;;;;;;;8.43;6.20;;;27.60;57.00;;;;;;5013757;28;20033;-74
2023/07/02 08:12:52;;;;;;;7.47;4.68;;;27.60;56.90;;;;;;5013911;28;20049;-75
2023/07/02 08:15:18;;;;;;;7.13;4.60;;;27.60;56.90;;;;;;5013841;28;20460;-76
2023/07/02 08:17:43;;;;;;;6.28;4.05;;;27.60;56.80;;;;;;5012298;28;20030;-74
2023/07/02 08:20:10;;;;;;;5.68;4.28;;;27.60;56.80;;;;;;5012509;28;20048;-75
2023/07/02 08:22:37;;;;;;;4.45;3.80;;;27.60;56.70;;;;;;5013409;28;20034;-74
2023/07/02 08:25:03;;;;;;;4.38;3.70;;;27.60;56.70;;;;;;5013639;28;20477;-74
2023/07/02 08:27:30;;;;;;;4.35;3.50;;;27.60;56.60;;;;;;5013783;28;20026;-75
2023/07/02 08:29:55;;;;;;;4.25;3.30;;;27.60;56.60;;;;;;5014199;28;20507;-76
2023/07/02 08:32:21;;;;;;;3.95;3.55;;;27.70;56.70;;;;;;5013409;28;20482;-75
2023/07/02 08:34:47;;;;;;;3.50;3.08;;;27.70;56.70;;;;;;5013545;28;20030;-75
2023/07/02 08:37:13;;;;;;;3.80;3.20;;;27.70;56.70;;;;;;5013311;28;20049;-75
2023/07/02 08:39:39;;;;;;;3.45;3.15;;;27.60;56.60;;;;;;5013404;28;20030;-75
2023/07/02 08:42:05;;;;;;;3.72;3.03;;;27.60;56.60;;;;;;5013538;28;20037;-75
2023/07/02 08:44:31;;;;;;;3.30;3.00;;;27.60;56.50;;;;;;5011944;28;20137;-75
2023/07/02 08:46:57;;;;;;;3.20;2.88;;;27.70;56.60;;;;;;5013609;28;20105;-76
2023/07/02 08:49:23;;;;;;;3.45;3.15;;;27.70;56.60;;;;;;5013077;28;20022;-75
2023/07/02 08:51:49;;;;;;;3.63;2.97;;;27.70;56.60;;;;;;5013069;28;20376;-75
2023/07/02 08:54:17;;;;;;;3.20;2.90;;;27.70;56.50;;;;;;5012998;28;20129;-75
2023/07/02 08:56:45;;;;;;;3.47;2.97;;;27.70;56.50;;;;;;5013683;28;20109;-75
2023/07/02 08:59:11;;;;;;;4.47;2.90;;;27.70;56.50;;;;;;5015703;28;20080;-74
2023/07/02 09:01:51;;;;;;;3.17;2.90;;;27.70;56.50;;;;;;5017187;28;20030;-74
2023/07/02 09:04:24;;;;;;;3.38;3.08;;;27.70;56.40;;;;;;5015962;28;20026;-74
2023/07/02 09:07:03;;;;;;;3.08;2.78;;;27.70;56.50;;;;;;5016900;28;20527;-74
2023/07/02 09:09:29;;;;;;;3.10;2.80;;;27.70;56.40;;;;;;5017199;28;20105;-74
2023/07/02 09:11:54;;;;;;;3.25;2.95;;;27.80;56.50;;;;;;5016913;28;20435;-75
2023/07/02 09:14:28;;;;;;;3.40;3.10;;;27.80;56.40;;;;;;5016962;28;20116;-75
2023/07/02 09:17:04;;;;;;;3.45;3.00;;;27.80;56.40;;;;;;5017006;28;20025;-74
2023/07/02 09:19:30;;;;;;;3.80;2.85;;;27.80;56.30;;;;;;5016831;28;20092;-75
2023/07/02 09:22:01;;;;;;;5.65;2.80;;;27.90;56.40;;;;;;5017082;28;20333;-75
2023/07/02 09:24:29;;;;;;;3.10;2.80;;;27.90;56.40;;;;;;5016843;28;20026;-74
2023/07/02 09:27:03;;;;;;;3.17;2.88;;;27.90;56.30;;;;;;5016521;28;20033;-75
2023/07/02 09:29:32;;;;;;;2.75;2.55;;;27.90;56.20;;;;;;5015399;28;20030;-74
2023/07/02 09:31:59;;;;;;;3.10;2.80;;;27.90;56.20;;;;;;5016456;28;20456;-75
2023/07/02 09:34:28;;;;;;;3.28;2.85;;;28.00;56.10;;;;;;5016899;28;20026;-74
2023/07/02 09:36:54;;;;;;;2.72;2.53;;;28.00;56.10;;;;;;5015206;28;20460;-75
2023/07/02 09:39:25;;;;;;;2.88;2.60;;;28.00;56.00;;;;;;5016572;28;20105;-75
2023/07/02 09:41:51;;;;;;;3.20;2.78;;;28.10;55.90;;;;;;5016631;28;20105;-75
2023/07/02 09:44:18;;;;;;;2.95;2.65;;;28.10;55.80;;;;;;5014694;28;20030;-75
2023/07/02 09:46:53;;;;;;;2.75;2.55;;;28.20;55.70;;;;;;5016995;28;20117;-75
2023/07/02 09:49:20;;;;;;;2.40;2.20;;;28.20;55.60;;;;;;5016445;28;20091;-75
2023/07/02 09:51:46;;;;;;;3.17;2.88;;;28.30;55.50;;;;;;5014996;28;20042;-75
2023/07/02 09:54:13;;;;;;;3.13;2.83;;;28.40;55.40;;;;;;5014751;28;20034;-74
2023/07/02 09:56:39;;;;;;;3.03;2.72;;;28.40;55.20;;;;;;5015920;28;20026;-75
2023/07/02 09:59:05;;;;;;;3.03;2.72;;;28.50;55.10;;;;;;5016507;28;20033;-75
2023/07/02 10:01:31;;;;;;;2.90;2.70;;;28.60;55.00;;;;;;5016205;28;20026;-75
2023/07/02 10:03:57;;;;;;;2.72;2.53;;;28.70;55.00;;;;;;5016006;28;20026;-75
2023/07/02 10:06:22;;;;;;;3.42;2.60;;;28.70;54.80;;;;;;5016098;28;20034;-74
2023/07/02 10:08:57;;;;;;;2.80;2.53;;;28.70;54.70;;;;;;5015942;28;20105;-75
2023/07/02 10:11:35;;;;;;;2.90;2.60;;;28.80;54.60;;;;;;5014504;28;20033;-74
2023/07/02 10:14:00;;;;;;;2.78;2.58;;;28.90;54.50;;;;;;5016089;28;20108;-74
2023/07/02 10:16:31;;;;;;;2.63;2.42;;;29.00;54.50;;;;;;5016031;28;20488;-75
2023/07/02 10:19:11;;;;;;;2.78;2.58;;;29.00;54.30;;;;;;5015696;28;20026;-75
2023/07/02 10:21:37;;;;;;;2.95;2.70;;;29.10;54.10;;;;;;5015502;28;20026;-75
2023/07/02 10:24:16;;;;;;;3.20;2.40;;;29.10;54.00;;;;;;5015697;28;20117;-75
2023/07/02 10:27:01;;;;;;;4.32;2.60;;;29.10;53.70;;;;;;5015640;28;20060;-75
2023/07/02 10:29:28;;;;;;;2.60;2.40;;;29.10;53.70;;;;;;5015454;28;20030;-75
2023/07/02 10:31:55;;;;;;;2.63;2.42;;;29.20;53.80;;;;;;5014891;28;20030;-75
2023/07/02 10:34:34;;;;;;;2.70;2.50;;;29.10;53.70;;;;;;5015649;28;20041;-75
2023/07/02 10:37:02;;;;;;;2.75;2.50;;;29.20;53.60;;;;;;5015455;28;20030;-74
2023/07/02 10:39:29;;;;;;;4.07;2.40;;;29.20;53.70;;;;;;5013923;28;20021;-75
2023/07/02 10:42:04;;;;;;;2.60;2.40;;;29.30;53.70;;;;;;5015232;28;20084;-75
2023/07/02 10:44:31;;;;;;;3.20;2.55;;;29.30;53.50;;;;;;5014909;28;20050;-75
2023/07/02 10:46:57;;;;;;;4.47;2.65;;;29.30;53.40;;;;;;5015614;28;20116;-75
2023/07/02 10:49:30;;;;;;;6.13;2.70;;;29.40;53.30;;;;;;5015494;28;20029;-74
2023/07/02 10:52:06;;;;;;;3.20;2.40;;;29.40;53.20;;;;;;5014859;28;20029;-74
2023/07/02 10:54:43;;;;;;;2.50;2.30;;;29.40;53.00;;;;;;5015156;28;20354;-76
2023/07/02 10:57:11;;;;;;;3.15;2.60;;;29.50;52.90;;;;;;5013419;28;20072;-75
2023/07/02 10:59:37;;;;;;;2.50;2.30;;;29.60;52.80;;;;;;5013724;28;20030;-74
2023/07/02 11:02:03;;;;;;;2.92;2.60;;;29.60;52.70;;;;;;5015183;28;20117;-74
2023/07/02 11:04:30;;;;;;;2.70;2.50;;;29.60;52.50;;;;;;5014924;28;20028;-74
2023/07/02 11:06:56;;;;;;;2.50;2.30;;;29.70;52.50;;;;;;5014640;28;20487;-75
2023/07/02 11:09:23;;;;;;;2.00;1.90;;;29.70;52.30;;;;;;5014768;28;20026;-75
2023/07/02 11:12:00;;;;;;;2.60;2.40;;;29.70;52.20;;;;;;5014681;28;20030;-75
2023/07/02 11:14:36;;;;;;;4.40;2.20;;;29.70;51.90;;;;;;5013461;28;20129;-75
2023/07/02 11:17:06;;;;;;;2.47;2.10;;;29.70;51.90;;;;;;5013183;28;20033;-75
2023/07/02 11:19:35;;;;;;;2.20;2.00;;;29.70;52.00;;;;;;5014286;28;20041;-76
2023/07/02 11:22:02;;;;;;;2.28;2.10;;;29.70;51.90;;;;;;5012682;28;20121;-75
2023/07/02 11:24:32;;;;;;;2.55;2.10;;;29.70;51.90;;;;;;5014649;28;20203;-75
2023/07/02 11:26:59;;;;;;;2.30;2.10;;;29.70;51.80;;;;;;5014807;28;20048;-75
2023/07/02 11:29:25;;;;;;;2.00;1.90;;;29.70;51.70;;;;;;5014423;28;20345;-74
2023/07/02 11:31:50;;;;;;;2.33;2.13;;;29.70;51.60;;;;;;5012738;28;20033;-74
2023/07/02 11:34:18;;;;;;;3.38;2.08;;;29.70;51.40;;;;;;5013720;28;20112;-75
2023/07/02 11:36:44;;;;;;;2.20;2.00;;;29.70;51.30;;;;;;5013282;28;20026;-75
2023/07/02 11:39:12;;;;;;;2.45;2.10;;;29.80;51.20;;;;;;5013280;28;20032;-76
2023/07/02 11:41:38;;;;;;;3.13;2.03;;;29.80;51.10;;;;;;5012703;28;20472;-76
2023/07/02 11:44:04;;;;;;;1.77;1.67;;;29.90;51.10;;;;;;5012543;28;20460;-75
2023/07/02 11:46:30;;;;;;;2.40;2.20;;;29.90;51.00;;;;;;5013993;28;20030;-75
2023/07/02 11:48:55;;;;;;;2.35;2.10;;;29.90;50.90;;;;;;5011804;28;20571;-75
2023/07/02 11:51:21;;;;;;;2.30;2.10;;;29.90;50.80;;;;;;5013573;28;20112;-75
2023/07/02 11:53:47;;;;;;;2.45;2.10;;;30.00;50.80;;;;;;5013705;28;20037;-76
2023/07/02 11:56:13;;;;;;;1.80;1.70;;;30.00;51.30;;;;;;5014020;28;20080;-75
2023/07/02 11:58:39;;;;;;;2.20;2.08;;;30.00;50.60;;;;;;5013628;28;20022;-75
2023/07/02 12:01:05;;;;;;;3.08;2.10;;;30.00;50.50;;;;;;5013495;28;20030;-74
2023/07/02 12:03:31;;;;;;;2.22;2.00;;;30.00;50.40;;;;;;5011534;28;20372;-75
2023/07/02 12:05:56;;;;;;;2.72;2.17;;;30.00;50.30;;;;;;5011496;28;20026;-75
2023/07/02 12:08:22;;;;;;;2.10;1.98;;;30.10;50.40;;;;;;5012654;28;20075;-74
2023/07/02 12:10:48;;;;;;;2.33;1.83;;;30.10;50.20;;;;;;5013177;28;20026;-74
2023/07/02 12:13:14;;;;;;;1.88;1.77;;;30.20;50.20;;;;;;5012797;28;20026;-74
2023/07/02 12:15:40;;;;;;;2.15;1.95;;;30.20;50.10;;;;;;5012578;28;20054;-75
2023/07/02 12:18:05;;;;;;;2.10;1.83;;;30.30;50.10;;;;;;5012806;28;20487;-75
2023/07/02 12:20:31;;;;;;;1.88;1.77;;;30.30;50.00;;;;;;5012484;28;20048;-75
2023/07/02 12:22:57;;;;;;;2.53;1.60;;;30.40;49.90;;;;;;5013277;28;20419;-75
2023/07/02 12:25:23;;;;;;;2.50;2.00;;;30.40;49.70;;;;;;5012809;28;20022;-76
2023/07/02 12:27:49;;;;;;;1.85;1.75;;;30.50;49.70;;;;;;5012888;28;20030;-75
2023/07/02 12:30:18;;;;;;;2.30;2.00;;;30.60;49.60;;;;;;5012250;28;20052;-74
2023/07/02 12:32:44;;;;;;;2.20;2.00;;;30.60;49.40;;;;;;5010901;28;20038;-75
2023/07/02 12:35:11;;;;;;;3.33;2.10;;;30.70;49.40;;;;;;5014698;28;20034;-74
2023/07/02 12:37:43;;;;;;;2.00;1.90;;;30.70;49.30;;;;;;5016532;28;20033;-75
2023/07/02 12:40:09;;;;;;;2.03;1.92;;;30.80;49.20;;;;;;5016684;28;20499;-75
2023/07/02 12:42:35;;;;;;;2.20;2.00;;;30.90;49.20;;;;;;5016790;28;20029;-75